sensor_id;sensor_type;location;lat;lon;timestamp;temperature;humidity
19665;DHT22;9980;51.020;7.772;2023-03-21T00:01:49;11.60;98.80
19665;DHT22;9980;51.020;7.772;2023-03-21T00:04:17;11.60;98.80
19665;DHT22;9980;51.020;7.772;2023-03-21T00:06:45;11.60;98.80
19665;DHT22;9980;51.020;7.772;2023-03-21T00:09:12;11.60;98.80
19665;DHT22;9980;51.020;7.772;2023-03-21T00:11:39;11.60;98.80
19665;DHT22;9980;51.020;7.772;2023-03-21T00:14:06;11.60;98.80
19665;DHT22;9980;51.020;7.772;2023-03-21T00:16:34;11.60;98.80
19665;DHT22;9980;51.020;7.772;2023-03-21T00:19:06;11.60;98.80
19665;DHT22;9980;51.020;7.772;2023-03-21T00:21:35;11.60;99.20
19665;DHT22;9980;51.020;7.772;2023-03-21T00:24:23;11.60;98.80
19665;DHT22;9980;51.020;7.772;2023-03-21T00:26:51;11.70;98.80
19665;DHT22;9980;51.020;7.772;2023-03-21T00:29:18;11.70;98.80
19665;DHT22;9980;51.020;7.772;2023-03-21T00:31:45;11.70;98.80
19665;DHT22;9980;51.020;7.772;2023-03-21T00:34:12;11.70;98.80
19665;DHT22;9980;51.020;7.772;2023-03-21T00:36:39;11.70;98.80
19665;DHT22;9980;51.020;7.772;2023-03-21T00:39:07;11.70;98.80
19665;DHT22;9980;51.020;7.772;2023-03-21T00:41:34;11.70;98.80
19665;DHT22;9980;51.020;7.772;2023-03-21T00:44:10;11.70;98.80
19665;DHT22;9980;51.020;7.772;2023-03-21T00:46:39;11.70;98.70
19665;DHT22;9980;51.020;7.772;2023-03-21T00:49:17;11.70;98.80
19665;DHT22;9980;51.020;7.772;2023-03-21T00:51:46;11.70;98.80
19665;DHT22;9980;51.020;7.772;2023-03-21T00:54:17;11.70;98.70
19665;DHT22;9980;51.020;7.772;2023-03-21T00:56:44;11.70;98.70
19665;DHT22;9980;51.020;7.772;2023-03-21T00:59:11;11.70;98.70
19665;DHT22;9980;51.020;7.772;2023-03-21T01:01:38;11.70;98.70
19665;DHT22;9980;51.020;7.772;2023-03-21T01:04:06;11.70;98.70
19665;DHT22;9980;51.020;7.772;2023-03-21T01:06:36;11.70;98.70
19665;DHT22;9980;51.020;7.772;2023-03-21T01:09:14;11.70;98.70
19665;DHT22;9980;51.020;7.772;2023-03-21T01:11:47;11.70;98.80
19665;DHT22;9980;51.020;7.772;2023-03-21T01:14:16;11.70;98.80
19665;DHT22;9980;51.020;7.772;2023-03-21T01:16:50;11.70;98.80
19665;DHT22;9980;51.020;7.772;2023-03-21T01:19:20;11.70;98.90
19665;DHT22;9980;51.020;7.772;2023-03-21T01:22:10;11.70;98.90
19665;DHT22;9980;51.020;7.772;2023-03-21T01:24:37;11.70;99.00
19665;DHT22;9980;51.020;7.772;2023-03-21T01:27:18;11.70;99.00
19665;DHT22;9980;51.020;7.772;2023-03-21T01:29:47;11.70;99.00
19665;DHT22;9980;51.020;7.772;2023-03-21T01:32:14;11.70;99.10
19665;DHT22;9980;51.020;7.772;2023-03-21T01:34:41;11.70;99.10
19665;DHT22;9980;51.020;7.772;2023-03-21T01:37:08;11.70;99.20
19665;DHT22;9980;51.020;7.772;2023-03-21T01:39:42;11.70;99.20
19665;DHT22;9980;51.020;7.772;2023-03-21T01:42:12;11.70;99.20
19665;DHT22;9980;51.020;7.772;2023-03-21T01:45:02;11.70;99.30
19665;DHT22;9980;51.020;7.772;2023-03-21T01:47:40;11.70;99.40
19665;DHT22;9980;51.020;7.772;2023-03-21T01:50:18;11.70;99.30
19665;DHT22;9980;51.020;7.772;2023-03-21T01:53:14;11.70;99.40
19665;DHT22;9980;51.020;7.772;2023-03-21T01:55:42;11.70;99.40
19665;DHT22;9980;51.020;7.772;2023-03-21T01:58:38;11.70;99.40
19665;DHT22;9980;51.020;7.772;2023-03-21T02:01:24;11.70;99.40
19665;DHT22;9980;51.020;7.772;2023-03-21T02:03:55;11.70;99.50
19665;DHT22;9980;51.020;7.772;2023-03-21T02:06:45;11.70;99.50
19665;DHT22;9980;51.020;7.772;2023-03-21T02:09:40;11.70;99.60
19665;DHT22;9980;51.020;7.772;2023-03-21T02:12:15;11.70;99.60
19665;DHT22;9980;51.020;7.772;2023-03-21T02:14:49;11.70;99.60
19665;DHT22;9980;51.020;7.772;2023-03-21T02:17:53;11.70;99.60
19665;DHT22;9980;51.020;7.772;2023-03-21T02:23:49;11.70;99.70
19665;DHT22;9980;51.020;7.772;2023-03-21T02:29:52;11.70;99.70
19665;DHT22;9980;51.020;7.772;2023-03-21T02:38:46;11.70;99.70
19665;DHT22;9980;51.020;7.772;2023-03-21T02:44:28;11.70;99.60
19665;DHT22;9980;51.020;7.772;2023-03-21T02:47:21;11.70;99.70
19665;DHT22;9980;51.020;7.772;2023-03-21T02:50:07;11.70;99.60
19665;DHT22;9980;51.020;7.772;2023-03-21T02:52:38;11.70;99.70
19665;DHT22;9980;51.020;7.772;2023-03-21T02:55:19;11.70;99.60
19665;DHT22;9980;51.020;7.772;2023-03-21T02:57:59;11.70;99.60
19665;DHT22;9980;51.020;7.772;2023-03-21T03:00:43;11.70;99.60
19665;DHT22;9980;51.020;7.772;2023-03-21T03:03:19;11.60;99.50
19665;DHT22;9980;51.020;7.772;2023-03-21T03:06:01;11.60;99.60
19665;DHT22;9980;51.020;7.772;2023-03-21T03:11:39;11.60;99.60
19665;DHT22;9980;51.020;7.772;2023-03-21T03:17:51;11.60;99.60
19665;DHT22;9980;51.020;7.772;2023-03-21T03:20:34;11.60;99.60
19665;DHT22;9980;51.020;7.772;2023-03-21T03:23:40;11.60;99.50
19665;DHT22;9980;51.020;7.772;2023-03-21T03:26:43;11.50;99.50
19665;DHT22;9980;51.020;7.772;2023-03-21T03:29:18;11.50;99.60
19665;DHT22;9980;51.020;7.772;2023-03-21T03:32:02;11.50;99.60
19665;DHT22;9980;51.020;7.772;2023-03-21T03:34:43;11.50;99.60
19665;DHT22;9980;51.020;7.772;2023-03-21T03:37:21;11.40;99.60
19665;DHT22;9980;51.020;7.772;2023-03-21T03:40:01;11.50;99.60
19665;DHT22;9980;51.020;7.772;2023-03-21T03:42:40;11.40;99.70
19665;DHT22;9980;51.020;7.772;2023-03-21T03:45:24;11.40;99.70
19665;DHT22;9980;51.020;7.772;2023-03-21T03:48:31;11.40;99.60
19665;DHT22;9980;51.020;7.772;2023-03-21T03:51:08;11.40;99.70
19665;DHT22;9980;51.020;7.772;2023-03-21T03:54:13;11.40;99.60
19665;DHT22;9980;51.020;7.772;2023-03-21T03:56:45;11.40;99.60
19665;DHT22;9980;51.020;7.772;2023-03-21T03:59:14;11.40;99.60
19665;DHT22;9980;51.020;7.772;2023-03-21T04:01:56;11.40;99.60
19665;DHT22;9980;51.020;7.772;2023-03-21T04:04:23;11.40;99.60
19665;DHT22;9980;51.020;7.772;2023-03-21T04:06:55;11.40;99.70
19665;DHT22;9980;51.020;7.772;2023-03-21T04:09:25;11.30;99.70
19665;DHT22;9980;51.020;7.772;2023-03-21T04:12:10;11.30;99.70
19665;DHT22;9980;51.020;7.772;2023-03-21T04:14:40;11.30;99.70
19665;DHT22;9980;51.020;7.772;2023-03-21T04:17:15;11.30;99.70
19665;DHT22;9980;51.020;7.772;2023-03-21T04:19:42;11.30;99.60
19665;DHT22;9980;51.020;7.772;2023-03-21T04:22:09;11.30;99.60
19665;DHT22;9980;51.020;7.772;2023-03-21T04:24:38;11.30;99.60
19665;DHT22;9980;51.020;7.772;2023-03-21T04:27:06;11.30;99.60
19665;DHT22;9980;51.020;7.772;2023-03-21T04:29:41;11.30;99.50
19665;DHT22;9980;51.020;7.772;2023-03-21T04:32:21;11.30;99.40
19665;DHT22;9980;51.020;7.772;2023-03-21T04:34:59;11.30;99.40
19665;DHT22;9980;51.020;7.772;2023-03-21T04:37:26;11.30;99.40
19665;DHT22;9980;51.020;7.772;2023-03-21T04:39:54;11.20;99.40
19665;DHT22;9980;51.020;7.772;2023-03-21T04:42:21;11.20;99.40
19665;DHT22;9980;51.020;7.772;2023-03-21T04:44:48;11.10;99.40
19665;DHT22;9980;51.020;7.772;2023-03-21T04:47:15;11.10;99.30
19665;DHT22;9980;51.020;7.772;2023-03-21T04:49:46;11.00;99.30
19665;DHT22;9980;51.020;7.772;2023-03-21T04:52:16;11.00;99.30
19665;DHT22;9980;51.020;7.772;2023-03-21T04:54:43;10.90;99.30
19665;DHT22;9980;51.020;7.772;2023-03-21T04:57:10;10.90;99.30
19665;DHT22;9980;51.020;7.772;2023-03-21T04:59:37;10.80;99.40
19665;DHT22;9980;51.020;7.772;2023-03-21T05:02:04;10.70;99.40
19665;DHT22;9980;51.020;7.772;2023-03-21T05:04:31;10.70;99.40
19665;DHT22;9980;51.020;7.772;2023-03-21T05:06:58;10.70;99.40
19665;DHT22;9980;51.020;7.772;2023-03-21T05:09:26;10.60;99.50
19665;DHT22;9980;51.020;7.772;2023-03-21T05:11:53;10.60;99.50
19665;DHT22;9980;51.020;7.772;2023-03-21T05:14:23;10.60;99.60
19665;DHT22;9980;51.020;7.772;2023-03-21T05:16:51;10.50;99.80
19665;DHT22;9980;51.020;7.772;2023-03-21T05:19:22;10.50;99.80
19665;DHT22;9980;51.020;7.772;2023-03-21T05:21:51;10.40;99.80
19665;DHT22;9980;51.020;7.772;2023-03-21T05:24:21;10.40;99.90
19665;DHT22;9980;51.020;7.772;2023-03-21T05:26:49;10.40;99.90
19665;DHT22;9980;51.020;7.772;2023-03-21T05:29:21;10.40;99.90
19665;DHT22;9980;51.020;7.772;2023-03-21T05:31:58;10.40;99.90
19665;DHT22;9980;51.020;7.772;2023-03-21T05:34:27;10.40;99.90
19665;DHT22;9980;51.020;7.772;2023-03-21T05:36:54;10.40;99.90
19665;DHT22;9980;51.020;7.772;2023-03-21T05:39:25;10.40;99.90
19665;DHT22;9980;51.020;7.772;2023-03-21T05:42:06;10.40;99.90
19665;DHT22;9980;51.020;7.772;2023-03-21T05:44:34;10.40;99.90
19665;DHT22;9980;51.020;7.772;2023-03-21T05:47:03;10.40;99.90
19665;DHT22;9980;51.020;7.772;2023-03-21T05:49:44;10.40;99.90
19665;DHT22;9980;51.020;7.772;2023-03-21T05:52:13;10.40;99.90
19665;DHT22;9980;51.020;7.772;2023-03-21T05:54:40;10.50;99.90
19665;DHT22;9980;51.020;7.772;2023-03-21T05:57:07;10.50;99.90
19665;DHT22;9980;51.020;7.772;2023-03-21T05:59:55;10.50;99.90
19665;DHT22;9980;51.020;7.772;2023-03-21T06:02:22;10.60;99.90
19665;DHT22;9980;51.020;7.772;2023-03-21T06:04:49;10.60;99.90
19665;DHT22;9980;51.020;7.772;2023-03-21T06:07:20;10.60;99.90
19665;DHT22;9980;51.020;7.772;2023-03-21T06:09:48;10.60;99.90
19665;DHT22;9980;51.020;7.772;2023-03-21T06:12:15;10.70;99.90
19665;DHT22;9980;51.020;7.772;2023-03-21T06:15:05;10.70;99.90
19665;DHT22;9980;51.020;7.772;2023-03-21T06:17:51;10.70;99.90
19665;DHT22;9980;51.020;7.772;2023-03-21T06:20:18;10.80;99.90
19665;DHT22;9980;51.020;7.772;2023-03-21T06:22:50;10.80;99.90
19665;DHT22;9980;51.020;7.772;2023-03-21T06:25:17;10.80;99.90
19665;DHT22;9980;51.020;7.772;2023-03-21T06:27:43;10.80;99.90
19665;DHT22;9980;51.020;7.772;2023-03-21T06:30:11;10.90;99.90
19665;DHT22;9980;51.020;7.772;2023-03-21T06:32:47;10.90;99.90
19665;DHT22;9980;51.020;7.772;2023-03-21T06:35:17;11.00;99.90
19665;DHT22;9980;51.020;7.772;2023-03-21T06:37:44;11.00;99.90
19665;DHT22;9980;51.020;7.772;2023-03-21T06:40:15;11.00;99.90
19665;DHT22;9980;51.020;7.772;2023-03-21T06:42:42;11.10;99.90
19665;DHT22;9980;51.020;7.772;2023-03-21T06:45:10;11.10;99.90
19665;DHT22;9980;51.020;7.772;2023-03-21T06:47:37;11.20;99.90
19665;DHT22;9980;51.020;7.772;2023-03-21T06:50:10;11.20;99.90
19665;DHT22;9980;51.020;7.772;2023-03-21T06:52:40;11.20;99.90
19665;DHT22;9980;51.020;7.772;2023-03-21T06:55:08;11.30;99.90
19665;DHT22;9980;51.020;7.772;2023-03-21T06:57:35;11.30;99.90
19665;DHT22;9980;51.020;7.772;2023-03-21T07:00:03;11.40;99.90
19665;DHT22;9980;51.020;7.772;2023-03-21T07:02:31;11.40;99.90
19665;DHT22;9980;51.020;7.772;2023-03-21T07:05:07;11.50;99.90
19665;DHT22;9980;51.020;7.772;2023-03-21T07:07:35;11.50;99.90
19665;DHT22;9980;51.020;7.772;2023-03-21T07:10:03;11.50;99.90
19665;DHT22;9980;51.020;7.772;2023-03-21T07:12:40;11.60;99.90
19665;DHT22;9980;51.020;7.772;2023-03-21T07:15:15;11.60;99.90
19665;DHT22;9980;51.020;7.772;2023-03-21T07:17:44;11.70;99.90
19665;DHT22;9980;51.020;7.772;2023-03-21T07:20:11;11.70;99.90
19665;DHT22;9980;51.020;7.772;2023-03-21T07:22:39;11.70;99.90
19665;DHT22;9980;51.020;7.772;2023-03-21T07:25:07;11.80;99.90
19665;DHT22;9980;51.020;7.772;2023-03-21T07:27:37;11.80;99.90
19665;DHT22;9980;51.020;7.772;2023-03-21T07:30:08;11.90;99.90
19665;DHT22;9980;51.020;7.772;2023-03-21T07:32:36;11.90;99.90
19665;DHT22;9980;51.020;7.772;2023-03-21T07:35:07;11.90;99.90
19665;DHT22;9980;51.020;7.772;2023-03-21T07:37:36;11.90;99.90
19665;DHT22;9980;51.020;7.772;2023-03-21T07:40:04;11.90;99.90
19665;DHT22;9980;51.020;7.772;2023-03-21T07:42:38;12.00;99.90
19665;DHT22;9980;51.020;7.772;2023-03-21T07:45:07;11.90;99.90
19665;DHT22;9980;51.020;7.772;2023-03-21T07:47:35;12.00;99.90
19665;DHT22;9980;51.020;7.772;2023-03-21T07:50:03;12.00;99.90
19665;DHT22;9980;51.020;7.772;2023-03-21T07:52:31;12.10;99.90
19665;DHT22;9980;51.020;7.772;2023-03-21T07:54:58;12.10;99.90
19665;DHT22;9980;51.020;7.772;2023-03-21T07:57:25;12.10;99.90
19665;DHT22;9980;51.020;7.772;2023-03-21T07:59:52;12.10;99.90
19665;DHT22;9980;51.020;7.772;2023-03-21T08:02:18;12.20;99.90
19665;DHT22;9980;51.020;7.772;2023-03-21T08:04:45;12.30;99.90
19665;DHT22;9980;51.020;7.772;2023-03-21T08:07:13;12.30;99.90
19665;DHT22;9980;51.020;7.772;2023-03-21T08:09:42;12.40;99.90
19665;DHT22;9980;51.020;7.772;2023-03-21T08:12:09;12.40;99.90
19665;DHT22;9980;51.020;7.772;2023-03-21T08:14:36;12.40;99.90
19665;DHT22;9980;51.020;7.772;2023-03-21T08:17:04;12.40;99.90
19665;DHT22;9980;51.020;7.772;2023-03-21T08:19:32;12.50;99.90
19665;DHT22;9980;51.020;7.772;2023-03-21T08:21:58;12.50;99.90
19665;DHT22;9980;51.020;7.772;2023-03-21T08:24:27;12.60;99.90
19665;DHT22;9980;51.020;7.772;2023-03-21T08:26:54;12.60;99.90
19665;DHT22;9980;51.020;7.772;2023-03-21T08:29:21;12.60;99.90
19665;DHT22;9980;51.020;7.772;2023-03-21T08:31:48;12.70;99.90
19665;DHT22;9980;51.020;7.772;2023-03-21T08:34:15;12.70;99.90
19665;DHT22;9980;51.020;7.772;2023-03-21T08:36:43;12.70;99.90
19665;DHT22;9980;51.020;7.772;2023-03-21T08:39:10;12.70;99.90
19665;DHT22;9980;51.020;7.772;2023-03-21T08:41:37;12.80;99.90
19665;DHT22;9980;51.020;7.772;2023-03-21T08:44:04;12.80;99.90
19665;DHT22;9980;51.020;7.772;2023-03-21T08:46:32;12.80;99.90
19665;DHT22;9980;51.020;7.772;2023-03-21T08:48:59;12.90;99.90
19665;DHT22;9980;51.020;7.772;2023-03-21T08:51:26;12.90;99.90
19665;DHT22;9980;51.020;7.772;2023-03-21T08:53:53;12.90;99.90
19665;DHT22;9980;51.020;7.772;2023-03-21T08:56:20;13.00;99.90
19665;DHT22;9980;51.020;7.772;2023-03-21T08:58:47;13.00;99.90
19665;DHT22;9980;51.020;7.772;2023-03-21T09:01:16;13.10;99.90
19665;DHT22;9980;51.020;7.772;2023-03-21T09:03:43;13.10;99.90
19665;DHT22;9980;51.020;7.772;2023-03-21T09:06:11;13.20;99.90
19665;DHT22;9980;51.020;7.772;2023-03-21T09:08:40;13.20;99.90
19665;DHT22;9980;51.020;7.772;2023-03-21T09:11:08;13.20;99.90
19665;DHT22;9980;51.020;7.772;2023-03-21T09:13:35;13.30;99.90
19665;DHT22;9980;51.020;7.772;2023-03-21T09:16:02;13.30;99.90
19665;DHT22;9980;51.020;7.772;2023-03-21T09:18:30;13.30;99.90
19665;DHT22;9980;51.020;7.772;2023-03-21T09:21:16;13.30;99.90
19665;DHT22;9980;51.020;7.772;2023-03-21T09:23:44;13.30;99.90
19665;DHT22;9980;51.020;7.772;2023-03-21T09:26:12;13.40;99.90
19665;DHT22;9980;51.020;7.772;2023-03-21T09:28:39;13.40;99.90
19665;DHT22;9980;51.020;7.772;2023-03-21T09:31:07;13.40;99.90
19665;DHT22;9980;51.020;7.772;2023-03-21T09:33:38;13.40;99.90
19665;DHT22;9980;51.020;7.772;2023-03-21T09:36:09;13.40;99.90
19665;DHT22;9980;51.020;7.772;2023-03-21T09:38:40;13.40;99.90
19665;DHT22;9980;51.020;7.772;2023-03-21T09:41:25;13.40;99.90
19665;DHT22;9980;51.020;7.772;2023-03-21T09:44:20;13.40;99.90
19665;DHT22;9980;51.020;7.772;2023-03-21T09:47:21;13.50;99.90
19665;DHT22;9980;51.020;7.772;2023-03-21T09:49:58;13.50;99.90
19665;DHT22;9980;51.020;7.772;2023-03-21T09:53:10;13.60;99.90
19665;DHT22;9980;51.020;7.772;2023-03-21T09:55:46;13.60;99.90
19665;DHT22;9980;51.020;7.772;2023-03-21T09:58:34;13.60;99.90
19665;DHT22;9980;51.020;7.772;2023-03-21T10:01:11;13.70;99.90
19665;DHT22;9980;51.020;7.772;2023-03-21T10:04:11;13.70;99.90
19665;DHT22;9980;51.020;7.772;2023-03-21T10:06:42;13.70;99.90
19665;DHT22;9980;51.020;7.772;2023-03-21T10:09:16;13.80;99.90
19665;DHT22;9980;51.020;7.772;2023-03-21T10:11:53;13.80;99.90
19665;DHT22;9980;51.020;7.772;2023-03-21T10:14:37;13.90;99.90
19665;DHT22;9980;51.020;7.772;2023-03-21T10:17:29;13.90;99.90
19665;DHT22;9980;51.020;7.772;2023-03-21T10:20:15;13.90;99.90
19665;DHT22;9980;51.020;7.772;2023-03-21T10:22:52;14.00;99.90
19665;DHT22;9980;51.020;7.772;2023-03-21T10:25:36;14.00;99.90
19665;DHT22;9980;51.020;7.772;2023-03-21T10:28:08;14.00;99.90
19665;DHT22;9980;51.020;7.772;2023-03-21T10:31:02;14.10;99.90
19665;DHT22;9980;51.020;7.772;2023-03-21T10:33:38;14.10;99.90
19665;DHT22;9980;51.020;7.772;2023-03-21T10:36:16;14.10;99.90
19665;DHT22;9980;51.020;7.772;2023-03-21T10:39:02;14.20;99.90
19665;DHT22;9980;51.020;7.772;2023-03-21T10:41:32;14.20;99.90
19665;DHT22;9980;51.020;7.772;2023-03-21T10:44:15;14.30;99.90
19665;DHT22;9980;51.020;7.772;2023-03-21T10:46:58;14.30;99.90
19665;DHT22;9980;51.020;7.772;2023-03-21T10:49:31;14.30;99.90
19665;DHT22;9980;51.020;7.772;2023-03-21T10:52:16;14.40;99.90
19665;DHT22;9980;51.020;7.772;2023-03-21T10:54:45;14.40;99.90
19665;DHT22;9980;51.020;7.772;2023-03-21T10:57:25;14.40;99.90
19665;DHT22;9980;51.020;7.772;2023-03-21T10:59:55;14.30;99.90
19665;DHT22;9980;51.020;7.772;2023-03-21T11:02:30;14.30;99.90
19665;DHT22;9980;51.020;7.772;2023-03-21T11:05:06;14.30;99.90
19665;DHT22;9980;51.020;7.772;2023-03-21T11:07:45;14.30;99.90
19665;DHT22;9980;51.020;7.772;2023-03-21T11:10:30;14.30;99.90
19665;DHT22;9980;51.020;7.772;2023-03-21T11:13:23;14.20;99.90
19665;DHT22;9980;51.020;7.772;2023-03-21T11:15:58;14.10;99.90
19665;DHT22;9980;51.020;7.772;2023-03-21T11:18:31;14.10;99.90
19665;DHT22;9980;51.020;7.772;2023-03-21T11:21:07;14.10;99.90
19665;DHT22;9980;51.020;7.772;2023-03-21T11:23:45;14.10;99.90
19665;DHT22;9980;51.020;7.772;2023-03-21T11:26:36;14.10;99.90
19665;DHT22;9980;51.020;7.772;2023-03-21T11:31:49;14.10;99.90
19665;DHT22;9980;51.020;7.772;2023-03-21T11:34:29;14.20;99.90
19665;DHT22;9980;51.020;7.772;2023-03-21T11:37:01;14.20;99.90
19665;DHT22;9980;51.020;7.772;2023-03-21T11:39:33;14.20;99.90
19665;DHT22;9980;51.020;7.772;2023-03-21T11:42:03;14.20;99.90
19665;DHT22;9980;51.020;7.772;2023-03-21T11:44:42;14.30;99.90
19665;DHT22;9980;51.020;7.772;2023-03-21T11:47:10;14.30;99.90
19665;DHT22;9980;51.020;7.772;2023-03-21T11:49:37;14.30;99.90
19665;DHT22;9980;51.020;7.772;2023-03-21T11:52:18;14.30;99.90
19665;DHT22;9980;51.020;7.772;2023-03-21T11:55:08;14.30;99.90
19665;DHT22;9980;51.020;7.772;2023-03-21T11:58:08;14.30;99.90
19665;DHT22;9980;51.020;7.772;2023-03-21T12:00:59;14.30;99.90
19665;DHT22;9980;51.020;7.772;2023-03-21T12:10:30;14.30;99.90
19665;DHT22;9980;51.020;7.772;2023-03-21T12:13:17;14.30;99.90
19665;DHT22;9980;51.020;7.772;2023-03-21T12:24:53;14.40;99.90
19665;DHT22;9980;51.020;7.772;2023-03-21T12:44:42;14.10;99.90
19665;DHT22;9980;51.020;7.772;2023-03-21T12:47:16;14.10;99.90
19665;DHT22;9980;51.020;7.772;2023-03-21T12:49:57;14.10;99.90
19665;DHT22;9980;51.020;7.772;2023-03-21T12:52:38;14.10;99.90
19665;DHT22;9980;51.020;7.772;2023-03-21T13:00:47;14.10;99.90
19665;DHT22;9980;51.020;7.772;2023-03-21T13:03:25;14.20;99.90
19665;DHT22;9980;51.020;7.772;2023-03-21T13:06:07;14.20;99.90
19665;DHT22;9980;51.020;7.772;2023-03-21T13:11:32;14.20;99.90
19665;DHT22;9980;51.020;7.772;2023-03-21T13:14:26;14.20;99.90
19665;DHT22;9980;51.020;7.772;2023-03-21T13:17:03;14.30;99.90
19665;DHT22;9980;51.020;7.772;2023-03-21T13:20:12;14.30;99.90
19665;DHT22;9980;51.020;7.772;2023-03-21T13:22:47;14.30;99.90
19665;DHT22;9980;51.020;7.772;2023-03-21T13:25:21;14.30;99.90
19665;DHT22;9980;51.020;7.772;2023-03-21T13:27:51;14.30;99.90
19665;DHT22;9980;51.020;7.772;2023-03-21T13:30:25;14.30;99.90
19665;DHT22;9980;51.020;7.772;2023-03-21T13:33:06;14.30;99.90
19665;DHT22;9980;51.020;7.772;2023-03-21T13:35:40;14.20;99.90
19665;DHT22;9980;51.020;7.772;2023-03-21T13:38:23;14.20;99.90
19665;DHT22;9980;51.020;7.772;2023-03-21T13:41:12;14.20;99.90
19665;DHT22;9980;51.020;7.772;2023-03-21T13:54:01;14.10;99.90
19665;DHT22;9980;51.020;7.772;2023-03-21T13:59:16;14.10;99.90
19665;DHT22;9980;51.020;7.772;2023-03-21T14:04:54;14.10;99.90
19665;DHT22;9980;51.020;7.772;2023-03-21T14:07:40;14.10;99.90
19665;DHT22;9980;51.020;7.772;2023-03-21T14:13:21;14.10;99.90
19665;DHT22;9980;51.020;7.772;2023-03-21T14:15:59;14.20;99.90
19665;DHT22;9980;51.020;7.772;2023-03-21T14:18:41;14.20;99.90
19665;DHT22;9980;51.020;7.772;2023-03-21T14:21:29;14.20;99.90
19665;DHT22;9980;51.020;7.772;2023-03-21T14:24:06;14.20;99.90
19665;DHT22;9980;51.020;7.772;2023-03-21T14:26:47;14.20;99.90
19665;DHT22;9980;51.020;7.772;2023-03-21T14:29:33;14.20;99.90
19665;DHT22;9980;51.020;7.772;2023-03-21T14:32:01;14.20;99.90
19665;DHT22;9980;51.020;7.772;2023-03-21T14:34:32;14.10;99.90
19665;DHT22;9980;51.020;7.772;2023-03-21T14:37:01;14.10;99.90
19665;DHT22;9980;51.020;7.772;2023-03-21T14:39:31;14.10;99.90
19665;DHT22;9980;51.020;7.772;2023-03-21T14:42:11;14.00;99.90
19665;DHT22;9980;51.020;7.772;2023-03-21T14:44:47;14.00;99.90
19665;DHT22;9980;51.020;7.772;2023-03-21T14:47:24;14.00;99.90
19665;DHT22;9980;51.020;7.772;2023-03-21T14:49:53;13.90;99.90
19665;DHT22;9980;51.020;7.772;2023-03-21T14:52:31;13.90;99.90
19665;DHT22;9980;51.020;7.772;2023-03-21T14:55:01;13.90;99.90
19665;DHT22;9980;51.020;7.772;2023-03-21T14:57:31;13.90;99.90
19665;DHT22;9980;51.020;7.772;2023-03-21T15:00:03;13.90;99.90
19665;DHT22;9980;51.020;7.772;2023-03-21T15:02:39;13.90;99.90
19665;DHT22;9980;51.020;7.772;2023-03-21T15:05:09;13.90;99.90
19665;DHT22;9980;51.020;7.772;2023-03-21T15:11:04;14.00;99.90
19665;DHT22;9980;51.020;7.772;2023-03-21T15:13:46;14.00;99.90
19665;DHT22;9980;51.020;7.772;2023-03-21T15:16:18;14.10;99.90
19665;DHT22;9980;51.020;7.772;2023-03-21T15:18:46;14.00;99.90
19665;DHT22;9980;51.020;7.772;2023-03-21T15:21:15;14.00;99.90
19665;DHT22;9980;51.020;7.772;2023-03-21T15:23:49;14.10;99.90
19665;DHT22;9980;51.020;7.772;2023-03-21T15:26:23;14.10;99.90
19665;DHT22;9980;51.020;7.772;2023-03-21T15:28:56;14.00;99.90
19665;DHT22;9980;51.020;7.772;2023-03-21T15:31:29;14.00;99.90
19665;DHT22;9980;51.020;7.772;2023-03-21T15:34:00;14.10;99.90
19665;DHT22;9980;51.020;7.772;2023-03-21T15:36:35;14.10;99.90
19665;DHT22;9980;51.020;7.772;2023-03-21T15:39:13;14.10;99.90
19665;DHT22;9980;51.020;7.772;2023-03-21T15:42:05;14.00;99.90
19665;DHT22;9980;51.020;7.772;2023-03-21T15:44:52;14.10;99.90
19665;DHT22;9980;51.020;7.772;2023-03-21T15:47:41;14.10;99.90
19665;DHT22;9980;51.020;7.772;2023-03-21T15:50:37;14.10;99.90
19665;DHT22;9980;51.020;7.772;2023-03-21T15:53:13;14.10;99.90
19665;DHT22;9980;51.020;7.772;2023-03-21T15:55:46;14.10;99.90
19665;DHT22;9980;51.020;7.772;2023-03-21T15:58:25;14.20;99.90
19665;DHT22;9980;51.020;7.772;2023-03-21T16:00:55;14.20;99.90
19665;DHT22;9980;51.020;7.772;2023-03-21T16:03:28;14.20;99.90
19665;DHT22;9980;51.020;7.772;2023-03-21T16:08:35;14.30;99.90
19665;DHT22;9980;51.020;7.772;2023-03-21T16:13:48;14.30;99.90
19665;DHT22;9980;51.020;7.772;2023-03-21T16:16:18;14.30;99.90
19665;DHT22;9980;51.020;7.772;2023-03-21T16:18:46;14.30;99.90
19665;DHT22;9980;51.020;7.772;2023-03-21T16:21:16;14.30;99.90
19665;DHT22;9980;51.020;7.772;2023-03-21T16:23:45;14.40;99.90
19665;DHT22;9980;51.020;7.772;2023-03-21T16:26:16;14.40;99.90
19665;DHT22;9980;51.020;7.772;2023-03-21T16:28:47;14.40;99.90
19665;DHT22;9980;51.020;7.772;2023-03-21T16:31:20;14.40;99.90
19665;DHT22;9980;51.020;7.772;2023-03-21T16:33:49;14.30;99.90
19665;DHT22;9980;51.020;7.772;2023-03-21T16:38:49;14.30;99.90
19665;DHT22;9980;51.020;7.772;2023-03-21T16:41:22;14.30;99.90
19665;DHT22;9980;51.020;7.772;2023-03-21T16:43:50;14.30;99.90
19665;DHT22;9980;51.020;7.772;2023-03-21T16:46:21;14.30;99.90
19665;DHT22;9980;51.020;7.772;2023-03-21T16:48:55;14.30;99.90
19665;DHT22;9980;51.020;7.772;2023-03-21T16:51:25;14.30;99.90
19665;DHT22;9980;51.020;7.772;2023-03-21T16:53:59;14.30;99.90
19665;DHT22;9980;51.020;7.772;2023-03-21T16:56:29;14.30;99.90
19665;DHT22;9980;51.020;7.772;2023-03-21T16:59:03;14.30;99.90
19665;DHT22;9980;51.020;7.772;2023-03-21T17:01:31;14.30;99.90
19665;DHT22;9980;51.020;7.772;2023-03-21T17:03:58;14.30;99.90
19665;DHT22;9980;51.020;7.772;2023-03-21T17:06:28;14.20;99.90
19665;DHT22;9980;51.020;7.772;2023-03-21T17:08:56;14.20;99.90
19665;DHT22;9980;51.020;7.772;2023-03-21T17:11:25;14.20;99.90
19665;DHT22;9980;51.020;7.772;2023-03-21T17:13:56;14.20;99.90
19665;DHT22;9980;51.020;7.772;2023-03-21T17:16:24;14.10;99.90
19665;DHT22;9980;51.020;7.772;2023-03-21T17:18:53;14.10;99.90
19665;DHT22;9980;51.020;7.772;2023-03-21T17:21:25;14.00;99.90
19665;DHT22;9980;51.020;7.772;2023-03-21T17:23:55;14.00;99.90
19665;DHT22;9980;51.020;7.772;2023-03-21T17:26:24;13.90;99.90
19665;DHT22;9980;51.020;7.772;2023-03-21T17:28:54;13.90;99.90
19665;DHT22;9980;51.020;7.772;2023-03-21T17:31:27;13.80;99.90
19665;DHT22;9980;51.020;7.772;2023-03-21T17:33:59;13.80;99.90
19665;DHT22;9980;51.020;7.772;2023-03-21T17:36:37;13.70;99.90
19665;DHT22;9980;51.020;7.772;2023-03-21T17:39:08;13.70;99.90
19665;DHT22;9980;51.020;7.772;2023-03-21T17:41:40;13.70;99.90
19665;DHT22;9980;51.020;7.772;2023-03-21T17:44:07;13.60;99.90
19665;DHT22;9980;51.020;7.772;2023-03-21T17:46:35;13.60;99.90
19665;DHT22;9980;51.020;7.772;2023-03-21T17:49:04;13.50;99.90
19665;DHT22;9980;51.020;7.772;2023-03-21T17:51:31;13.40;99.90
19665;DHT22;9980;51.020;7.772;2023-03-21T17:53:59;13.40;99.90
19665;DHT22;9980;51.020;7.772;2023-03-21T17:56:29;13.30;99.90
19665;DHT22;9980;51.020;7.772;2023-03-21T17:58:59;13.30;99.90
19665;DHT22;9980;51.020;7.772;2023-03-21T18:01:28;13.20;99.90
19665;DHT22;9980;51.020;7.772;2023-03-21T18:03:57;13.20;99.90
19665;DHT22;9980;51.020;7.772;2023-03-21T18:06:25;13.10;99.90